Time;durP1;ratioP1;P1;durP2;ratioP2;P2;SDS_P1;SDS_P2;PMS_P1;PMS_P2;Temp;Humidity;BMP_temperature;BMP_pressure;BME280_temperature;BME280_humidity;BME280_pressure;Samples;Min_cycle;Max_cycle;Signal;HPM_P1;HPM_P2
2021/12/21 00:02:13;;;;;;;1.63;1.52;;;;;;;1.95;67.57;102152.97;5082407;29;20114;-80
2021/12/21 00:04:43;;;;;;;1.55;1.45;;;;;;;1.90;68.14;102152.84;5088092;29;20511;-80
2021/12/21 00:07:14;;;;;;;0.75;0.75;;;;;;;1.84;69.17;102153.53;5073801;29;20438;-81
2021/12/21 00:09:44;;;;;;;1.08;1.08;;;;;;;1.88;67.99;102159.69;5068501;29;20048;-80
2021/12/21 00:12:17;;;;;;;0.90;0.90;;;;;;;1.89;68.20;102153.66;5097560;29;20051;-81
2021/12/21 00:20:29;;;;;;;0.60;0.60;;;;;;;1.89;67.77;102157.13;5102244;29;20028;-81
2021/12/21 00:25:32;;;;;;;0.85;0.85;;;;;;;1.87;67.74;102155.31;5089460;29;20392;-80
2021/12/21 00:28:03;;;;;;;2.05;1.90;;;;;;;1.80;67.90;102159.41;5119594;28;20039;-80
2021/12/21 00:30:34;;;;;;;5.10;1.67;;;;;;;1.77;67.98;102146.41;5101519;29;20035;-81
2021/12/21 00:33:04;;;;;;;1.45;1.35;;;;;;;1.73;68.47;102147.13;5051485;29;20791;-81
2021/12/21 00:35:35;;;;;;;0.98;0.95;;;;;;;1.67;68.01;102152.97;5122322;28;20031;-80
2021/12/21 00:38:05;;;;;;;1.52;1.42;;;;;;;1.77;67.92;102146.41;5124942;28;20054;-80
2021/12/21 00:40:36;;;;;;;1.48;1.40;;;;;;;1.78;68.13;102140.38;5090003;29;20489;-82
2021/12/21 00:43:06;;;;;;;1.40;1.30;;;;;;;1.78;68.08;102142.94;5067618;29;20040;-80
2021/12/21 00:45:37;;;;;;;1.83;1.73;;;;;;;1.74;67.82;102143.69;5083861;29;20509;-80
2021/12/21 00:48:07;;;;;;;0.80;0.80;;;;;;;1.72;68.04;102137.59;5088417;29;20529;-80
2021/12/21 00:50:38;;;;;;;0.88;0.88;;;;;;;1.65;68.06;102136.53;5069299;29;20036;-81
2021/12/21 00:53:08;;;;;;;0.95;0.95;;;;;;;1.68;67.56;102138.34;5075160;29;20074;-82
2021/12/21 00:55:39;;;;;;;0.80;0.80;;;;;;;1.67;68.37;102131.41;5107824;29;20043;-81
2021/12/21 00:58:09;;;;;;;0.70;0.70;;;;;;;1.67;68.02;102133.97;5082461;29;20511;-80
2021/12/21 01:00:40;;;;;;;0.73;0.73;;;;;;;1.65;67.84;102126.19;5069300;29;20036;-81
2021/12/21 01:03:13;;;;;;;1.35;1.25;;;;;;;1.63;67.66;102126.94;5090369;29;20040;-81
2021/12/21 01:09:06;;;;;;;0.90;0.90;;;;;;;1.49;68.09;102124.78;5055302;29;20048;-81
2021/12/21 01:17:12;;;;;;;33.05;3.17;;;;;;;1.51;67.87;102124.81;5083230;29;20111;-80
2021/12/21 01:19:47;;;;;;;0.60;0.60;;;;;;;1.49;68.02;102121.34;5080174;29;20055;-80
2021/12/21 01:22:36;;;;;;;0.77;0.77;;;;;;;1.43;67.31;102122.00;5054465;29;20110;-82
2021/12/21 01:25:23;;;;;;;0.60;0.60;;;;;;;1.43;67.87;102116.84;5069228;29;20040;-80
2021/12/21 01:28:06;;;;;;;0.98;0.98;;;;;;;1.42;67.83;102123.69;5080919;29;20036;-81
2021/12/21 01:35:58;;;;;;;0.50;0.50;;;;;;;1.36;68.04;102120.03;5084926;29;20448;-80
2021/12/21 01:38:48;;;;;;;2.25;1.83;;;;;;;1.34;68.08;102119.97;5057313;29;20120;-80
2021/12/21 01:41:39;;;;;;;1.50;1.40;;;;;;;1.31;67.97;102126.75;5083535;29;20027;-82
2021/12/21 01:49:38;;;;;;;;;;;;;;;;;;;;;
2021/12/21 01:52:09;;;;;;;2.70;2.20;;;;;;;1.22;67.87;102132.50;5063603;29;20040;-80
2021/12/21 01:54:40;;;;;;;2.85;2.28;;;;;;;1.28;68.03;102124.09;5094516;29;20056;-80
2021/12/21 01:57:12;;;;;;;1.15;1.15;;;;;;;1.25;67.98;102125.72;5080356;29;20032;-80
2021/12/21 01:59:44;;;;;;;6.90;2.80;;;;;;;1.25;67.59;102125.72;5082509;29;20136;-80
2021/12/21 02:02:18;;;;;;;10.50;3.08;;;;;;;1.21;67.86;102123.84;5095280;29;20048;-80
2021/12/21 02:04:48;;;;;;;;;;;;;;;1.20;67.80;102110.88;5095571;29;20123;-82
2021/12/21 02:07:19;;;;;;;0.98;0.98;;;;;;;1.18;68.02;102115.13;5088371;29;20045;-79
2021/12/21 02:09:49;;;;;;;1.13;1.13;;;;;;;1.21;67.90;102110.91;5100328;29;20056;-80
2021/12/21 02:12:21;;;;;;;1.08;1.08;;;;;;;1.18;67.97;102116.00;5103798;29;20028;-80
2021/12/21 02:14:57;;;;;;;0.65;0.65;;;;;;;1.17;67.65;102106.50;5117500;28;20068;-82
2021/12/21 02:20:16;;;;;;;0.70;0.70;;;;;;;1.12;67.88;102105.44;5085975;29;20525;-80
2021/12/21 02:23:07;;;;;;;1.13;1.13;;;;;;;1.10;67.84;102102.81;5098141;29;20044;-80
2021/12/21 02:25:57;;;;;;;;;;;;;;;;;;;;;
2021/12/21 02:30:51;;;;;;;1.33;1.30;;;;;;;1.10;67.54;102096.78;5112022;28;20066;-80
2021/12/21 02:33:25;;;;;;;0.90;0.90;;;;;;;1.01;68.76;102091.28;5066940;29;20509;-81
2021/12/21 02:35:57;;;;;;;0.60;0.60;;;;;;;1.02;68.20;102091.31;5079742;29;20590;-80
2021/12/21 02:38:28;;;;;;;0.60;0.60;;;;;;;0.97;68.74;102097.16;5050745;29;20036;-81
2021/12/21 02:40:59;;;;;;;0.63;0.63;;;;;;;0.96;68.71;102093.72;5063909;29;20036;-80
2021/12/21 02:43:29;;;;;;;1.58;1.48;;;;;;;1.02;68.55;102093.03;5063811;29;20544;-80
2021/12/21 02:46:00;;;;;;;0.63;0.63;;;;;;;1.03;68.41;102099.97;5064753;29;20028;-80
2021/12/21 02:48:31;;;;;;;0.80;0.80;;;;;;;1.06;68.22;102097.47;5096264;29;20485;-80
2021/12/21 02:51:02;;;;;;;1.00;1.00;;;;;;;0.99;68.34;102093.81;5081087;29;20528;-80
2021/12/21 02:53:32;;;;;;;0.50;0.50;;;;;;;1.00;67.72;102089.53;5079853;29;20091;-80
2021/12/21 02:56:03;;;;;;;0.70;0.70;;;;;;;1.00;68.38;102099.84;5077991;29;20028;-80
2021/12/21 02:58:34;;;;;;;0.55;0.55;;;;;;;0.86;68.52;102100.28;5078461;29;20064;-80
2021/12/21 03:01:07;;;;;;;0.70;0.70;;;;;;;0.83;69.05;102094.13;5093624;29;20028;-80
2021/12/21 03:03:38;;;;;;;0.90;0.90;;;;;;;0.89;68.41;102091.75;5108210;28;20100;-81
2021/12/21 03:06:16;;;;;;;0.82;0.82;;;;;;;0.87;68.69;102089.09;5069392;29;20436;-79
2021/12/21 03:08:56;;;;;;;1.88;1.38;;;;;;;0.90;68.08;102091.78;5061973;29;20120;-80
2021/12/21 03:14:15;;;;;;;0.60;0.60;;;;;;;0.81;69.00;102094.03;5080295;29;20064;-81
2021/12/21 03:16:46;;;;;;;9.32;3.53;;;;;;;0.81;68.21;102091.47;5111086;28;20063;-82
2021/12/21 03:19:16;;;;;;;0.55;0.55;;;;;;;0.74;68.66;102102.41;5047800;29;20036;-80
2021/12/21 03:21:47;;;;;;;1.27;1.17;;;;;;;0.80;68.37;102101.75;5057222;29;20028;-80
2021/12/21 03:24:17;;;;;;;0.45;0.45;;;;;;;0.81;68.12;102088.88;5063495;29;20048;-80
2021/12/21 03:26:50;;;;;;;0.93;0.93;;;;;;;0.74;68.33;102081.72;5092493;29;20062;-80
2021/12/21 03:29:20;;;;;;;0.60;0.60;;;;;;;0.78;68.19;102094.81;5062998;29;20062;-80
2021/12/21 03:31:51;;;;;;;2.00;1.60;;;;;;;0.74;68.07;102103.31;5086971;29;20055;-80
2021/12/21 03:34:21;;;;;;;1.50;1.42;;;;;;;0.74;67.63;102092.06;5084146;29;20491;-80
2021/12/21 03:36:52;;;;;;;0.88;0.88;;;;;;;0.71;67.84;102099.69;5063469;29;20773;-80
2021/12/21 03:39:22;;;;;;;0.80;0.80;;;;;;;0.66;68.37;102093.50;5047279;29;20046;-81
2021/12/21 03:41:56;;;;;;;0.85;0.85;;;;;;;0.72;67.88;102088.53;5080684;29;20445;-80
2021/12/21 03:44:27;;;;;;;0.70;0.70;;;;;;;0.65;68.26;102089.16;5061031;29;20040;-80
2021/12/21 03:46:58;;;;;;;0.73;0.70;;;;;;;0.59;68.56;102092.38;5063478;29;20036;-81
2021/12/21 03:52:16;;;;;;;0.85;0.85;;;;;;;0.57;68.22;102087.19;5074799;29;20035;-80
2021/12/21 03:54:50;;;;;;;0.60;0.60;;;;;;;0.54;68.20;102092.22;5093038;29;20040;-80
2021/12/21 03:57:24;;;;;;;12.63;2.53;;;;;;;0.58;68.28;102088.06;5047052;29;20119;-79
2021/12/21 03:59:55;;;;;;;1.05;1.05;;;;;;;0.57;68.35;102079.44;5071685;29;20373;-80
2021/12/21 04:02:27;;;;;;;5.38;1.85;;;;;;;0.55;68.32;102080.19;5103628;29;20071;-82
2021/12/21 04:04:59;;;;;;;0.85;0.85;;;;;;;0.59;68.61;102076.88;5067794;29;20024;-80
2021/12/21 04:07:33;;;;;;;1.35;1.33;;;;;;;0.56;68.53;102072.50;5106318;29;20034;-80
2021/12/21 04:10:04;;;;;;;0.95;0.95;;;;;;;0.53;68.46;102077.56;5082790;29;20463;-80
2021/12/21 04:12:35;;;;;;;1.50;1.50;;;;;;;0.52;68.23;102075.81;5097747;29;20032;-80
2021/12/21 04:15:07;;;;;;;0.70;0.70;;;;;;;0.53;68.67;102072.41;5071219;29;20084;-80
2021/12/21 04:17:37;;;;;;;0.98;0.98;;;;;;;0.56;68.38;102067.34;5069858;29;20461;-80
2021/12/21 04:20:08;;;;;;;0.40;0.40;;;;;;;0.50;68.44;102074.00;5071742;29;20015;-80
2021/12/21 04:22:39;;;;;;;0.60;0.60;;;;;;;0.47;68.52;102070.47;5081870;29;20043;-80
2021/12/21 04:25:09;;;;;;;1.17;1.17;;;;;;;0.54;68.30;102071.56;5066096;29;20231;-80
2021/12/21 04:27:40;;;;;;;0.60;0.60;;;;;;;0.41;69.12;102064.19;5068992;29;20063;-80
2021/12/21 04:30:11;;;;;;;1.67;1.48;;;;;;;0.44;68.80;102061.75;5050373;29;20112;-80
2021/12/21 04:32:41;;;;;;;0.77;0.77;;;;;;;0.43;69.06;102059.97;5081057;29;20566;-80
2021/12/21 04:35:12;;;;;;;0.75;0.75;;;;;;;0.44;69.09;102052.28;5114141;28;20064;-80
2021/12/21 04:37:45;;;;;;;1.48;1.40;;;;;;;0.45;68.95;102058.34;5113738;28;20289;-81
2021/12/21 04:40:19;;;;;;;0.45;0.45;;;;;;;0.51;68.70;102050.81;5067318;29;20032;-81
2021/12/21 04:42:49;;;;;;;1.55;1.45;;;;;;;0.50;68.52;102053.34;5083535;29;20445;-80
2021/12/21 04:45:20;;;;;;;1.20;1.15;;;;;;;0.44;68.76;102059.16;5050268;29;20078;-80
2021/12/21 04:47:50;;;;;;;3.83;1.88;;;;;;;0.37;69.11;102059.78;5077621;29;20127;-81
2021/12/21 04:50:21;;;;;;;2.58;2.30;;;;;;;0.35;68.96;102056.25;5051546;29;20067;-81
2021/12/21 04:52:52;;;;;;;1.75;1.65;;;;;;;0.34;68.09;102059.66;5078785;29;20044;-80
2021/12/21 04:55:22;;;;;;;0.50;0.50;;;;;;;0.36;68.44;102055.41;5113723;28;20046;-79
2021/12/21 04:57:53;;;;;;;1.08;1.08;;;;;;;0.35;68.27;102054.53;5063158;29;20040;-80
2021/12/21 05:00:23;;;;;;;0.50;0.50;;;;;;;0.28;68.86;102048.28;5050516;29;20032;-80
2021/12/21 05:02:54;;;;;;;0.80;0.80;;;;;;;0.33;68.19;102055.28;5093094;29;20052;-80
2021/12/21 05:05:25;;;;;;;0.50;0.50;;;;;;;0.30;68.09;102064.69;5098216;29;20036;-80
2021/12/21 05:08:41;;;;;;;0.60;0.60;;;;;;;0.27;68.65;102059.44;5096697;29;20560;-79
2021/12/21 05:10:50;;;;;;;1.08;1.08;;;;;;;0.24;68.29;102061.00;5068369;29;20095;-81
2021/12/21 05:13:24;;;;;;;3.00;1.83;;;;;;;0.27;68.86;102062.00;5107539;28;20055;-80
2021/12/21 05:15:54;;;;;;;;;;;;;;;0.21;68.52;102066.91;5082481;29;20163;-82
2021/12/21 05:18:26;;;;;;;0.60;0.60;;;;;;;0.22;68.80;102060.94;5082097;29;20080;-79
2021/12/21 05:20:56;;;;;;;2.33;2.13;;;;;;;0.20;68.69;102057.44;5087087;29;20020;-82
2021/12/21 05:23:27;;;;;;;1.25;1.15;;;;;;;0.07;68.71;102061.25;5097136;29;20516;-80
2021/12/21 05:25:58;;;;;;;0.95;0.95;;;;;;;0.10;68.65;102063.06;5087739;29;20050;-81
2021/12/21 05:28:28;;;;;;;0.82;0.75;;;;;;;0.08;68.86;102062.13;5086241;29;20253;-80
2021/12/21 05:30:59;;;;;;;1.63;1.52;;;;;;;0.14;68.64;102062.34;5085503;29;20036;-79
2021/12/21 05:33:29;;;;;;;0.60;0.60;;;;;;;0.17;68.96;102056.44;5087332;29;20525;-82
2021/12/21 05:36:00;;;;;;;0.60;0.60;;;;;;;0.10;69.09;102058.78;5073643;29;20119;-82
2021/12/21 05:38:33;;;;;;;0.60;0.60;;;;;;;0.12;68.41;102064.03;5088293;29;20107;-81
2021/12/21 05:41:06;;;;;;;0.60;0.60;;;;;;;0.15;68.79;102058.94;5088005;29;20047;-81
2021/12/21 05:43:37;;;;;;;2.08;1.42;;;;;;;0.13;68.99;102058.00;5122009;28;20039;-82
2021/12/21 05:46:07;;;;;;;0.60;0.60;;;;;;;0.04;68.99;102049.94;5058061;29;20310;-83
2021/12/21 05:48:37;;;;;;;1.05;1.05;;;;;;;0.07;68.70;102050.94;5089655;29;20050;-83
2021/12/21 05:51:08;;;;;;;0.57;0.57;;;;;;;0.07;69.13;102055.22;5098239;29;20020;-81
2021/12/21 05:53:38;;;;;;;0.95;0.95;;;;;;;0.11;68.73;102057.97;5089176;29;20104;-82
2021/12/21 05:56:09;;;;;;;0.50;0.50;;;;;;;0.14;68.35;102057.19;5059083;29;20731;-81
2021/12/21 05:58:39;;;;;;;0.70;0.70;;;;;;;0.07;68.51;102060.38;5074573;29;20052;-83
2021/12/21 06:01:10;;;;;;;0.90;0.90;;;;;;;0.07;68.49;102057.78;5109343;29;20032;-83
2021/12/21 06:03:44;;;;;;;0.57;0.57;;;;;;;-0.03;69.10;102054.84;5092432;29;20537;-82
2021/12/21 06:06:16;;;;;;;0.75;0.75;;;;;;;0.01;68.67;102063.59;5121510;28;20258;-83
2021/12/21 06:08:48;;;;;;;0.60;0.60;;;;;;;0.03;68.55;102068.84;5096245;29;20040;-83
2021/12/21 06:11:20;;;;;;;1.80;1.70;;;;;;;0.05;68.72;102072.31;5060776;29;20100;-81
2021/12/21 06:27:21;;;;;;;2.95;2.75;;;;;;;-0.16;68.73;102081.03;5081434;29;20590;-84
2021/12/21 06:29:51;;;;;;;1.13;1.13;;;;;;;-0.16;69.15;102079.31;5115815;29;20028;-84
2021/12/21 06:32:22;;;;;;;0.80;0.80;;;;;;;-0.13;68.64;102077.66;5113048;29;20065;-83
2021/12/21 06:34:53;;;;;;;30.83;3.33;;;;;;;-0.18;68.65;102080.06;5121560;29;20016;-85
2021/12/21 06:37:24;;;;;;;1.73;1.63;;;;;;;-0.19;68.88;102078.31;5075880;29;20075;-83
2021/12/21 06:39:55;;;;;;;1.00;1.00;;;;;;;-0.19;68.65;102076.63;5065775;29;20020;-84
2021/12/21 06:42:27;;;;;;;1.00;1.00;;;;;;;-0.18;69.37;102075.81;5094742;29;20036;-84
2021/12/21 06:44:59;;;;;;;2.10;2.00;;;;;;;-0.19;68.84;102075.72;5098705;29;20028;-84
2021/12/21 06:53:09;;;;;;;1.27;1.27;;;;;;;-0.29;69.31;102076.22;5095493;29;20047;-82
2021/12/21 06:55:39;;;;;;;0.60;0.60;;;;;;;-0.26;69.33;102084.06;5114409;29;20039;-82
2021/12/21 06:58:10;;;;;;;1.02;1.02;;;;;;;-0.32;69.05;102090.75;5126435;28;20096;-83
2021/12/21 07:00:41;;;;;;;1.17;1.17;;;;;;;-0.29;69.34;102096.84;5095142;29;20028;-84
2021/12/21 07:03:13;;;;;;;1.33;1.30;;;;;;;-0.33;69.04;102090.69;5076656;29;20044;-84
2021/12/21 07:05:45;;;;;;;0.75;0.75;;;;;;;-0.30;69.57;102090.78;5113148;29;20035;-82
2021/12/21 07:08:20;;;;;;;1.75;1.65;;;;;;;-0.31;69.26;102099.34;5067184;29;20032;-83
2021/12/21 07:19:12;;;;;;;3.35;2.88;;;;;;;-0.30;69.80;102095.09;5077498;29;20033;-82
2021/12/21 07:21:43;;;;;;;0.40;0.40;;;;;;;-0.26;69.33;102099.53;5109533;29;20554;-83
2021/12/21 07:24:13;;;;;;;0.85;0.85;;;;;;;-0.24;69.17;102108.22;5095148;29;20100;-82
2021/12/21 07:26:44;;;;;;;0.68;0.68;;;;;;;-0.33;70.23;102096.72;5115243;29;20039;-81
2021/12/21 07:29:14;;;;;;;0.85;0.85;;;;;;;-0.28;69.64;102099.47;5085951;29;20048;-83
2021/12/21 07:31:45;;;;;;;0.50;0.50;;;;;;;-0.29;69.35;102100.28;5092599;29;20040;-82
2021/12/21 07:34:17;;;;;;;0.80;0.80;;;;;;;-0.29;69.49;102097.72;5079827;29;20063;-82
2021/12/21 07:36:47;;;;;;;1.00;1.00;;;;;;;-0.30;69.42;102100.25;5072695;29;20055;-81
2021/12/21 07:39:19;;;;;;;0.60;0.60;;;;;;;-0.29;69.04;102099.44;5124457;28;20040;-81
2021/12/21 07:41:49;;;;;;;1.15;1.15;;;;;;;-0.29;69.19;102102.00;5099515;29;20056;-83
2021/12/21 07:44:20;;;;;;;1.00;1.00;;;;;;;-0.28;68.90;102104.63;5081334;29;20040;-83
2021/12/21 07:46:50;;;;;;;0.90;0.90;;;;;;;-0.25;69.16;102101.28;5087248;29;20617;-81
2021/12/21 07:49:21;;;;;;;0.60;0.60;;;;;;;-0.29;69.41;102091.69;5101634;29;20551;-81
2021/12/21 07:51:52;;;;;;;0.95;0.95;;;;;;;-0.32;69.31;102095.91;5084865;29;20043;-83
2021/12/21 07:54:22;;;;;;;1.73;1.63;;;;;;;-0.33;69.12;102101.88;5107482;29;20036;-84
2021/12/21 07:56:53;;;;;;;0.60;0.60;;;;;;;-0.36;69.20;102101.72;5102129;29;20064;-82
2021/12/21 07:59:23;;;;;;;0.63;0.63;;;;;;;-0.36;69.65;102106.88;5101811;29;20376;-81
2021/12/21 08:01:54;;;;;;;0.90;0.90;;;;;;;-0.35;69.44;102102.63;5070809;29;20032;-82
2021/12/21 08:04:28;;;;;;;2.38;2.25;;;;;;;-0.38;69.33;102105.97;5072408;29;20036;-82
2021/12/21 08:07:05;;;;;;;0.77;0.77;;;;;;;-0.37;69.78;102105.13;5122584;29;20036;-84
2021/12/21 08:09:40;;;;;;;1.05;1.05;;;;;;;-0.38;69.95;102108.56;5077896;29;20117;-81
2021/12/21 08:12:16;;;;;;;0.50;0.50;;;;;;;-0.34;69.50;102107.84;5074828;29;20028;-83
2021/12/21 08:14:48;;;;;;;4.10;2.20;;;;;;;-0.34;69.74;102107.84;5094567;29;20437;-83
2021/12/21 08:17:20;;;;;;;0.68;0.68;;;;;;;-0.34;69.90;102110.41;5070094;29;20024;-82
2021/12/21 08:19:50;;;;;;;2.45;2.35;;;;;;;-0.36;69.33;102103.44;5108119;29;20144;-82
2021/12/21 08:22:21;;;;;;;0.47;0.47;;;;;;;-0.35;69.51;102108.66;5072228;29;20036;-81
2021/12/21 08:24:51;;;;;;;1.15;1.15;;;;;;;-0.38;69.47;102113.72;5086298;29;20107;-83
2021/12/21 08:27:22;;;;;;;1.88;1.77;;;;;;;-0.36;69.55;102106.88;5091840;29;20477;-83
2021/12/21 08:29:52;;;;;;;2.42;2.33;;;;;;;-0.34;69.58;102104.41;5114612;29;20095;-83
2021/12/21 08:32:23;;;;;;;3.13;2.92;;;;;;;-0.33;69.75;102101.88;5087619;29;20035;-83
2021/12/21 08:34:53;;;;;;;0.55;0.55;;;;;;;-0.33;69.83;102103.59;5088509;29;20028;-84
2021/12/21 08:37:24;;;;;;;1.83;1.67;;;;;;;-0.35;70.01;102103.50;5074472;29;20598;-84
2021/12/21 08:39:55;;;;;;;0.73;0.73;;;;;;;-0.36;69.52;102108.59;5061048;29;20034;-82
2021/12/21 08:42:27;;;;;;;3.22;2.90;;;;;;;-0.35;70.10;102098.34;5089728;29;20359;-83
2021/12/21 08:44:59;;;;;;;0.70;0.70;;;;;;;-0.35;70.24;102098.34;5093103;29;20028;-82
2021/12/21 08:47:29;;;;;;;0.60;0.60;;;;;;;-0.36;69.84;102096.56;5086072;29;20054;-83
2021/12/21 08:50:00;;;;;;;0.50;0.50;;;;;;;-0.30;69.81;102098.53;5077027;29;20028;-82
2021/12/21 08:52:32;;;;;;;0.60;0.60;;;;;;;-0.30;70.06;102100.25;5058166;29;20036;-83
2021/12/21 08:55:05;;;;;;;0.73;0.73;;;;;;;-0.32;70.30;102101.06;5060347;29;20023;-83
2021/12/21 08:57:36;;;;;;;2.33;2.22;;;;;;;-0.26;70.50;102107.25;5125931;28;20061;-83
2021/12/21 09:00:08;;;;;;;2.03;1.88;;;;;;;-0.25;70.21;102114.19;5080822;29;20532;-83
2021/12/21 09:02:39;;;;;;;1.15;1.15;;;;;;;-0.25;70.22;102103.88;5121937;28;20039;-83
2021/12/21 09:05:24;;;;;;;0.60;0.60;;;;;;;-0.28;70.77;102109.78;5072087;29;20052;-81
2021/12/21 09:07:55;;;;;;;0.88;0.88;;;;;;;-0.23;70.46;102117.72;5056703;29;20064;-84
2021/12/21 09:10:27;;;;;;;1.23;1.23;;;;;;;-0.28;70.69;102119.22;5071071;29;20048;-82
2021/12/21 09:12:58;;;;;;;0.50;0.50;;;;;;;-0.24;70.32;102113.38;5113155;29;20051;-82
2021/12/21 09:15:30;;;;;;;0.88;0.88;;;;;;;-0.29;70.97;102113.19;5095384;29;20249;-83
2021/12/21 09:18:00;;;;;;;1.30;1.30;;;;;;;-0.27;70.37;102108.97;5095857;29;20040;-81
2021/12/21 09:20:31;;;;;;;0.90;0.90;;;;;;;-0.24;70.70;102115.94;5073644;29;20039;-83
2021/12/21 09:23:02;;;;;;;1.67;1.60;;;;;;;-0.23;70.89;102117.72;5116994;28;20202;-81
2021/12/21 09:25:32;;;;;;;0.43;0.43;;;;;;;-0.22;70.94;102111.75;5053705;29;20039;-82
2021/12/21 09:28:03;;;;;;;1.08;1.08;;;;;;;-0.20;70.92;102122.97;5060637;29;20088;-82
2021/12/21 09:30:34;;;;;;;1.90;1.80;;;;;;;-0.20;70.72;102122.97;5057469;29;20040;-83
2021/12/21 09:33:04;;;;;;;0.57;0.57;;;;;;;-0.24;71.38;102115.94;5105185;29;20048;-82
2021/12/21 09:35:35;;;;;;;1.08;1.05;;;;;;;-0.26;71.53;102115.00;5107594;29;20042;-82
2021/12/21 09:38:05;;;;;;;0.50;0.50;;;;;;;-0.26;71.74;102117.59;5070828;29;20043;-81
2021/12/21 09:40:39;;;;;;;0.55;0.55;;;;;;;-0.23;71.61;102110.84;5077232;29;20059;-81
2021/12/21 09:43:11;;;;;;;0.40;0.40;;;;;;;-0.20;71.71;102112.66;5125147;28;20532;-82
2021/12/21 09:45:42;;;;;;;0.95;0.95;;;;;;;-0.16;71.43;102112.84;5101924;29;20040;-81
2021/12/21 09:48:12;;;;;;;1.83;1.73;;;;;;;-0.14;71.57;102112.03;5098808;29;20127;-82
2021/12/21 09:50:43;;;;;;;0.80;0.80;;;;;;;-0.14;71.78;102107.75;5106356;29;20052;-82
2021/12/21 09:53:13;;;;;;;0.63;0.63;;;;;;;-0.15;71.78;102103.41;5119358;28;20094;-82
2021/12/21 09:55:47;;;;;;;0.70;0.70;;;;;;;-0.15;72.26;102100.84;5095137;29;20103;-81
2021/12/21 09:58:17;;;;;;;0.45;0.45;;;;;;;-0.08;72.36;102100.25;5061537;29;20041;-83
2021/12/21 10:00:48;;;;;;;1.25;1.25;;;;;;;-0.05;72.42;102100.38;5066564;29;20039;-82
2021/12/21 10:03:18;;;;;;;4.55;2.55;;;;;;;0.02;72.35;102101.47;5078271;29;20036;-82
2021/12/21 10:05:49;;;;;;;0.43;0.43;;;;;;;-0.02;72.31;102097.91;5077952;29;20032;-84
2021/12/21 10:08:20;;;;;;;0.50;0.50;;;;;;;0.04;72.16;102111.88;5102372;29;20056;-83
2021/12/21 10:10:52;;;;;;;1.13;1.08;;;;;;;0.12;72.02;102102.75;5074254;29;20040;-82
2021/12/21 10:13:25;;;;;;;0.70;0.70;;;;;;;0.12;72.39;102106.19;5088964;29;20036;-84
2021/12/21 10:16:00;;;;;;;0.60;0.60;;;;;;;0.15;72.50;102100.25;5112650;29;20055;-82
2021/12/21 10:18:32;;;;;;;;;;;;;;;0.16;72.28;102099.44;5059492;29;20088;-84
2021/12/21 10:21:06;;;;;;;0.40;0.40;;;;;;;0.17;73.27;102103.78;5136736;28;19918;-84
2021/12/21 10:23:39;;;;;;;0.70;0.70;;;;;;;0.18;72.90;102100.38;5110355;29;20042;-83
2021/12/21 10:26:30;;;;;;;0.40;0.40;;;;;;;0.26;72.81;102092.91;5125536;28;20609;-84
2021/12/21 10:29:05;;;;;;;0.47;0.47;;;;;;;0.23;73.04;102087.66;5086117;29;20036;-84
2021/12/21 10:31:39;;;;;;;0.50;0.50;;;;;;;0.35;72.30;102094.97;5105262;29;20027;-82
2021/12/21 10:34:15;;;;;;;0.50;0.50;;;;;;;0.25;73.18;102089.47;5089148;29;20064;-83
2021/12/21 10:36:51;;;;;;;0.60;0.60;;;;;;;0.36;72.80;102089.00;5082232;29;20036;-84
2021/12/21 10:39:28;;;;;;;0.60;0.60;;;;;;;0.33;73.69;102089.75;5064400;29;20024;-84
2021/12/21 10:42:00;;;;;;;0.55;0.55;;;;;;;0.39;73.10;102089.97;5096613;29;20067;-84
2021/12/21 10:44:30;;;;;;;2.00;1.90;;;;;;;0.38;73.79;102087.31;5070033;29;20095;-85
2021/12/21 10:47:01;;;;;;;0.50;0.50;;;;;;;0.49;72.65;102080.84;5077135;29;20055;-83
2021/12/21 10:49:32;;;;;;;0.82;0.82;;;;;;;0.53;72.86;102081.84;5065570;29;20103;-83
2021/12/21 10:52:07;;;;;;;0.50;0.50;;;;;;;0.54;72.10;102079.31;5096786;29;20072;-85
2021/12/21 10:54:46;;;;;;;0.85;0.85;;;;;;;0.53;72.63;102075.00;5097736;29;20153;-86
2021/12/21 10:57:36;;;;;;;1.25;1.25;;;;;;;0.53;73.16;102076.69;5098342;29;20032;-87
2021/12/21 11:00:13;;;;;;;0.60;0.60;;;;;;;0.53;73.44;102075.00;5099180;29;20063;-84
2021/12/21 11:02:49;;;;;;;0.63;0.63;;;;;;;0.53;73.36;102074.09;5108489;29;20032;-84
2021/12/21 11:05:21;;;;;;;0.40;0.40;;;;;;;0.59;73.31;102072.63;5111766;29;20135;-85
2021/12/21 11:08:01;;;;;;;0.40;0.40;;;;;;;0.61;72.76;102055.47;5078905;29;20088;-84
2021/12/21 11:10:35;;;;;;;0.40;0.40;;;;;;;0.67;72.65;102053.94;5110195;29;20043;-85
2021/12/21 11:13:08;;;;;;;0.70;0.70;;;;;;;0.61;72.83;102055.47;5087684;29;20040;-85
2021/12/21 11:15:51;;;;;;;;;;;;;;;0.62;72.75;102054.63;5064136;29;20505;-85
2021/12/21 11:18:25;;;;;;;0.68;0.68;;;;;;;0.62;72.80;102051.19;5090137;29;19923;-82
2021/12/21 11:20:56;;;;;;;0.60;0.60;;;;;;;0.71;72.55;102042.84;5094104;29;20055;-85
2021/12/21 11:23:27;;;;;;;0.40;0.40;;;;;;;0.76;72.80;102038.75;5073247;29;20043;-83
2021/12/21 11:25:58;;;;;;;0.40;0.40;;;;;;;0.75;72.35;102039.56;5060593;29;20047;-82
2021/12/21 11:28:35;;;;;;;0.90;0.90;;;;;;;0.76;72.00;102038.75;5106165;29;20468;-83
2021/12/21 11:31:07;;;;;;;0.40;0.40;;;;;;;0.82;72.60;102035.50;5120396;28;20032;-85
2021/12/21 11:33:44;;;;;;;0.70;0.70;;;;;;;0.83;71.49;102035.56;5086051;29;20086;-82
2021/12/21 11:39:06;;;;;;;1.48;1.45;;;;;;;0.94;72.06;102021.31;5076636;29;20051;-83
2021/12/21 11:41:39;;;;;;;0.50;0.50;;;;;;;1.01;71.99;102012.03;5094342;29;20032;-84
2021/12/21 11:44:21;;;;;;;0.50;0.50;;;;;;;1.04;71.69;102009.53;5094662;29;20044;-83
2021/12/21 11:46:55;;;;;;;0.60;0.60;;;;;;;1.06;72.47;102010.50;5093385;29;20028;-82
2021/12/21 11:49:32;;;;;;;1.42;1.35;;;;;;;1.07;72.01;102006.19;5084448;29;20570;-82
2021/12/21 11:52:09;;;;;;;0.50;0.50;;;;;;;1.16;71.67;102003.91;5104487;29;20036;-84
2021/12/21 11:54:46;;;;;;;0.50;0.50;;;;;;;1.16;72.04;102001.31;5059196;29;20059;-82
2021/12/21 11:57:19;;;;;;;0.50;0.50;;;;;;;1.25;71.91;101998.13;5105570;29;20067;-83
2021/12/21 11:59:50;;;;;;;0.60;0.60;;;;;;;1.29;71.60;101992.25;5102639;29;20493;-83
2021/12/21 12:02:29;;;;;;;0.50;0.50;;;;;;;1.38;71.99;101992.53;5073436;29;20337;-82
2021/12/21 12:04:59;;;;;;;0.85;0.85;;;;;;;1.42;71.42;101991.78;5104470;29;20063;-84
2021/12/21 12:07:34;;;;;;;1.00;0.68;;;;;;;1.47;71.77;101994.50;5095730;29;20036;-84
2021/12/21 12:10:08;;;;;;;1.55;1.45;;;;;;;1.55;72.44;101987.88;5123194;28;20043;-85
2021/12/21 12:12:39;;;;;;;0.80;0.80;;;;;;;1.54;71.84;101988.69;5081716;29;20078;-82
2021/12/21 12:15:10;;;;;;;0.73;0.73;;;;;;;1.63;71.44;101995.88;5076007;29;20031;-82
2021/12/21 12:17:51;;;;;;;0.70;0.70;;;;;;;1.64;71.46;101996.75;5086559;29;20048;-83
2021/12/21 12:20:27;;;;;;;0.95;0.95;;;;;;;1.73;70.83;101991.84;5087894;29;20119;-83
2021/12/21 12:23:08;;;;;;;0.75;0.75;;;;;;;1.79;71.60;101989.44;5064260;29;20040;-82
2021/12/21 12:25:49;;;;;;;0.50;0.50;;;;;;;1.79;72.00;101989.44;5093455;29;20043;-85
2021/12/21 12:28:32;;;;;;;0.80;0.80;;;;;;;1.84;71.66;101989.56;5089830;29;20036;-84
2021/12/21 12:31:02;;;;;;;1.05;1.02;;;;;;;1.93;71.58;101991.56;5074361;29;20040;-84
2021/12/21 12:33:40;;;;;;;0.50;0.50;;;;;;;1.99;71.83;101992.59;5101479;29;20044;-83
2021/12/21 12:36:10;;;;;;;1.25;1.25;;;;;;;2.03;71.32;101984.09;5095075;29;20036;-84
2021/12/21 12:38:43;;;;;;;0.50;0.50;;;;;;;2.09;71.73;101975.63;5126188;28;20054;-84
2021/12/21 12:41:14;;;;;;;0.60;0.60;;;;;;;2.07;71.23;101977.31;5125446;28;20529;-82
2021/12/21 12:43:45;;;;;;;0.40;0.40;;;;;;;2.15;71.48;101973.22;5092688;29;20064;-83
2021/12/21 12:46:27;;;;;;;0.50;0.50;;;;;;;2.11;70.90;101976.53;5074786;29;20071;-82
2021/12/21 12:48:57;;;;;;;0.50;0.50;;;;;;;2.20;71.41;101978.53;5100565;29;20055;-82
2021/12/21 12:51:33;;;;;;;1.35;1.25;;;;;;;2.16;71.72;101976.66;5087408;29;20028;-82
2021/12/21 12:54:16;;;;;;;0.68;0.68;;;;;;;2.22;70.77;101973.38;5070169;29;20052;-83
2021/12/21 12:56:46;;;;;;;0.52;0.52;;;;;;;2.27;70.76;101969.22;5060707;29;20064;-82
2021/12/21 12:59:17;;;;;;;0.60;0.60;;;;;;;2.39;70.00;101969.53;5104428;29;20072;-82
2021/12/21 13:01:49;;;;;;;0.50;0.50;;;;;;;2.40;70.20;101971.28;5107254;29;20035;-83
2021/12/21 13:04:19;;;;;;;0.60;0.60;;;;;;;2.41;70.67;101972.16;5101878;29;20051;-83
2021/12/21 13:06:52;;;;;;;0.82;0.82;;;;;;;2.44;70.85;101978.28;5114351;29;20404;-83
2021/12/21 13:09:23;;;;;;;0.50;0.50;;;;;;;2.46;70.70;101976.63;5107039;29;20044;-85